sensor_id;sensor_type;location;lat;lon;timestamp;pressure;altitude;pressure_sealevel;temperature;humidity
60212;BME280;46079;48.686;15.598;2023-02-28T00:00:26;100868.69;;;19.83;38.82
60212;BME280;46079;48.686;15.598;2023-02-28T00:02:51;100865.09;;;19.84;38.86
60212;BME280;46079;48.686;15.598;2023-02-28T00:05:19;100872.00;;;19.85;38.71
60212;BME280;46079;48.686;15.598;2023-02-28T00:07:45;100880.84;;;19.84;38.66
60212;BME280;46079;48.686;15.598;2023-02-28T00:10:13;100872.00;;;19.85;38.83
60212;BME280;46079;48.686;15.598;2023-02-28T00:12:39;100878.22;;;19.84;38.76
60212;BME280;46079;48.686;15.598;2023-02-28T00:15:06;100886.09;;;19.84;38.73
60212;BME280;46079;48.686;15.598;2023-02-28T00:17:32;100880.00;;;19.84;38.96
60212;BME280;46079;48.686;15.598;2023-02-28T00:19:57;100883.47;;;19.84;38.69
60212;BME280;46079;48.686;15.598;2023-02-28T00:22:36;100880.75;;;19.86;38.81
60212;BME280;46079;48.686;15.598;2023-02-28T00:25:02;100878.22;;;19.84;38.95
60212;BME280;46079;48.686;15.598;2023-02-28T00:27:29;100886.09;;;19.84;38.91
60212;BME280;46079;48.686;15.598;2023-02-28T00:29:54;100884.19;;;19.86;39.01
60212;BME280;46079;48.686;15.598;2023-02-28T00:32:20;100878.13;;;19.86;39.05
60212;BME280;46079;48.686;15.598;2023-02-28T00:34:45;100883.38;;;19.86;39.10
60212;BME280;46079;48.686;15.598;2023-02-28T00:37:11;100884.19;;;19.86;39.06
60212;BME280;46079;48.686;15.598;2023-02-28T00:39:39;100883.38;;;19.86;38.94
60212;BME280;46079;48.686;15.598;2023-02-28T00:42:06;100889.47;;;19.86;38.86
60212;BME280;46079;48.686;15.598;2023-02-28T00:44:32;100883.38;;;19.86;38.98
60212;BME280;46079;48.686;15.598;2023-02-28T00:46:58;100890.28;;;19.87;38.95
60212;BME280;46079;48.686;15.598;2023-02-28T00:49:25;100889.47;;;19.86;39.06
60212;BME280;46079;48.686;15.598;2023-02-28T00:51:52;100884.19;;;19.86;38.95
60212;BME280;46079;48.686;15.598;2023-02-28T00:54:18;100883.38;;;19.86;38.93
60212;BME280;46079;48.686;15.598;2023-02-28T00:56:43;100891.13;;;19.87;39.09
60212;BME280;46079;48.686;15.598;2023-02-28T00:59:11;100892.91;;;19.87;39.14
60212;BME280;46079;48.686;15.598;2023-02-28T01:01:37;100889.47;;;19.86;38.86
60212;BME280;46079;48.686;15.598;2023-02-28T01:04:02;100888.50;;;19.87;39.02
60212;BME280;46079;48.686;15.598;2023-02-28T01:06:28;100891.13;;;19.87;39.08
60212;BME280;46079;48.686;15.598;2023-02-28T01:08:53;100895.44;;;19.88;38.97
60212;BME280;46079;48.686;15.598;2023-02-28T01:11:28;100887.66;;;19.87;38.99
60212;BME280;46079;48.686;15.598;2023-02-28T01:13:54;100899.00;;;19.87;39.02
60212;BME280;46079;48.686;15.598;2023-02-28T01:16:19;100894.59;;;19.88;39.02
60212;BME280;46079;48.686;15.598;2023-02-28T01:18:45;100890.91;;;19.90;39.03
60212;BME280;46079;48.686;15.598;2023-02-28T01:21:13;100888.41;;;19.89;39.16
60212;BME280;46079;48.686;15.598;2023-02-28T01:23:40;100884.94;;;19.88;39.11
60212;BME280;46079;48.686;15.598;2023-02-28T01:26:08;100891.84;;;19.89;39.06
60212;BME280;46079;48.686;15.598;2023-02-28T01:28:34;100893.53;;;19.90;39.18
60212;BME280;46079;48.686;15.598;2023-02-28T01:31:00;100896.16;;;19.90;39.33
60212;BME280;46079;48.686;15.598;2023-02-28T01:33:25;100896.16;;;19.90;39.35
60212;BME280;46079;48.686;15.598;2023-02-28T01:36:01;100902.22;;;19.91;39.32
60212;BME280;46079;48.686;15.598;2023-02-28T01:38:27;100897.84;;;19.91;39.31
60212;BME280;46079;48.686;15.598;2023-02-28T01:40:53;100896.88;;;19.92;39.26
60212;BME280;46079;48.686;15.598;2023-02-28T01:43:27;100899.50;;;19.92;39.39
60212;BME280;46079;48.686;15.598;2023-02-28T01:45:55;100910.00;;;19.92;39.39
60212;BME280;46079;48.686;15.598;2023-02-28T01:48:27;100911.69;;;19.93;39.33
60212;BME280;46079;48.686;15.598;2023-02-28T01:50:57;100912.53;;;19.94;39.38
60212;BME280;46079;48.686;15.598;2023-02-28T01:53:31;100908.13;;;19.94;39.30
60212;BME280;46079;48.686;15.598;2023-02-28T01:55:57;100902.88;;;19.94;39.14
60212;BME280;46079;48.686;15.598;2023-02-28T01:58:23;100900.13;;;19.96;39.37
60212;BME280;46079;48.686;15.598;2023-02-28T02:00:49;100907.16;;;19.95;39.31
60212;BME280;46079;48.686;15.598;2023-02-28T02:03:16;100917.56;;;19.97;39.43
60212;BME280;46079;48.686;15.598;2023-02-28T02:05:46;100914.94;;;19.97;39.40
60212;BME280;46079;48.686;15.598;2023-02-28T02:08:24;100906.22;;;19.96;39.42
60212;BME280;46079;48.686;15.598;2023-02-28T02:10:55;100909.56;;;19.98;39.63
60212;BME280;46079;48.686;15.598;2023-02-28T02:13:41;100901.81;;;19.97;39.62
60212;BME280;46079;48.686;15.598;2023-02-28T02:21:19;100900.63;;;20.01;39.32
60212;BME280;46079;48.686;15.598;2023-02-28T02:37:46;100909.09;;;20.05;39.86
60212;BME280;46079;48.686;15.598;2023-02-28T02:40:16;100915.22;;;20.05;39.70
60212;BME280;46079;48.686;15.598;2023-02-28T02:42:48;100900.31;;;20.06;39.78
60212;BME280;46079;48.686;15.598;2023-02-28T02:45:24;100900.31;;;20.06;39.99
60212;BME280;46079;48.686;15.598;2023-02-28T02:47:51;100908.06;;;20.07;39.97
60212;BME280;46079;48.686;15.598;2023-02-28T02:50:26;100913.31;;;20.07;39.90
60212;BME280;46079;48.686;15.598;2023-02-28T02:52:56;100905.31;;;20.09;39.86
60212;BME280;46079;48.686;15.598;2023-02-28T02:55:25;100903.53;;;20.09;39.85
60212;BME280;46079;48.686;15.598;2023-02-28T02:57:59;100897.34;;;20.10;39.99
60212;BME280;46079;48.686;15.598;2023-02-28T03:00:31;100896.47;;;20.10;39.93
60212;BME280;46079;48.686;15.598;2023-02-28T03:02:58;100900.81;;;20.11;40.03
60212;BME280;46079;48.686;15.598;2023-02-28T03:05:32;100899.00;;;20.11;40.11
60212;BME280;46079;48.686;15.598;2023-02-28T03:07:59;100895.44;;;20.12;39.88
60212;BME280;46079;48.686;15.598;2023-02-28T03:10:35;100900.69;;;20.12;40.15
60212;BME280;46079;48.686;15.598;2023-02-28T03:15:47;100899.63;;;20.15;40.02
60212;BME280;46079;48.686;15.598;2023-02-28T03:18:34;100905.69;;;20.15;40.29
60212;BME280;46079;48.686;15.598;2023-02-28T03:21:27;100903.94;;;20.16;40.06
60212;BME280;46079;48.686;15.598;2023-02-28T03:24:18;100897.72;;;20.17;40.08
60212;BME280;46079;48.686;15.598;2023-02-28T03:26:50;100896.88;;;20.16;40.08
60212;BME280;46079;48.686;15.598;2023-02-28T03:29:20;100901.19;;;20.17;39.85
60212;BME280;46079;48.686;15.598;2023-02-28T03:31:53;100909.91;;;20.18;40.00
60212;BME280;46079;48.686;15.598;2023-02-28T03:34:29;100895.84;;;20.19;40.00
60212;BME280;46079;48.686;15.598;2023-02-28T03:37:02;100900.13;;;20.20;39.99
60212;BME280;46079;48.686;15.598;2023-02-28T03:39:41;100893.06;;;20.20;40.26
60212;BME280;46079;48.686;15.598;2023-02-28T03:42:12;100894.78;;;20.21;40.05
60212;BME280;46079;48.686;15.598;2023-02-28T03:44:41;100895.59;;;20.22;40.13
60212;BME280;46079;48.686;15.598;2023-02-28T03:47:17;100900.84;;;20.22;39.95
60212;BME280;46079;48.686;15.598;2023-02-28T03:50:00;100901.69;;;20.23;39.96
60212;BME280;46079;48.686;15.598;2023-02-28T03:52:31;100900.72;;;20.24;40.09
60212;BME280;46079;48.686;15.598;2023-02-28T03:55:02;100905.97;;;20.24;39.91
60212;BME280;46079;48.686;15.598;2023-02-28T03:58:04;100906.84;;;20.24;40.24
60212;BME280;46079;48.686;15.598;2023-02-28T04:00:34;100909.47;;;20.24;39.87
60212;BME280;46079;48.686;15.598;2023-02-28T04:03:01;100898.97;;;20.24;39.83
60212;BME280;46079;48.686;15.598;2023-02-28T04:05:27;100902.28;;;20.26;39.84
60212;BME280;46079;48.686;15.598;2023-02-28T04:07:53;100902.28;;;20.26;39.97
60212;BME280;46079;48.686;15.598;2023-02-28T04:10:19;100899.66;;;20.26;40.10
60212;BME280;46079;48.686;15.598;2023-02-28T04:12:47;100902.28;;;20.26;40.11
60212;BME280;46079;48.686;15.598;2023-02-28T04:15:14;100907.44;;;20.28;39.99
60212;BME280;46079;48.686;15.598;2023-02-28T04:17:40;100908.28;;;20.28;40.10
60212;BME280;46079;48.686;15.598;2023-02-28T04:20:06;100912.56;;;20.29;39.99
60212;BME280;46079;48.686;15.598;2023-02-28T04:22:35;100903.84;;;20.29;40.09
60212;BME280;46079;48.686;15.598;2023-02-28T04:25:01;100904.69;;;20.29;40.07
60212;BME280;46079;48.686;15.598;2023-02-28T04:27:26;100909.94;;;20.29;40.15
60212;BME280;46079;48.686;15.598;2023-02-28T04:29:52;100908.03;;;20.31;39.95
60212;BME280;46079;48.686;15.598;2023-02-28T04:32:17;100915.94;;;20.31;40.02
60212;BME280;46079;48.686;15.598;2023-02-28T04:34:42;100903.75;;;20.30;40.23
60212;BME280;46079;48.686;15.598;2023-02-28T04:37:08;100910.69;;;20.31;40.22
60212;BME280;46079;48.686;15.598;2023-02-28T04:39:36;100915.84;;;20.33;40.14
60212;BME280;46079;48.686;15.598;2023-02-28T04:42:02;100907.94;;;20.33;40.17
60212;BME280;46079;48.686;15.598;2023-02-28T04:44:27;100911.41;;;20.33;40.24
60212;BME280;46079;48.686;15.598;2023-02-28T04:46:53;100907.00;;;20.34;39.99
60212;BME280;46079;48.686;15.598;2023-02-28T04:49:18;100905.19;;;20.34;40.14
60212;BME280;46079;48.686;15.598;2023-02-28T04:51:43;100906.03;;;20.35;40.25
60212;BME280;46079;48.686;15.598;2023-02-28T04:54:09;100912.16;;;20.35;40.09
60212;BME280;46079;48.686;15.598;2023-02-28T04:56:35;100912.97;;;20.36;40.12
60212;BME280;46079;48.686;15.598;2023-02-28T04:59:00;100916.44;;;20.36;40.16
60212;BME280;46079;48.686;15.598;2023-02-28T05:01:31;100919.06;;;20.36;40.21
60212;BME280;46079;48.686;15.598;2023-02-28T05:03:58;100918.09;;;20.37;40.39
60212;BME280;46079;48.686;15.598;2023-02-28T05:06:26;100916.19;;;20.39;40.24
60212;BME280;46079;48.686;15.598;2023-02-28T05:08:52;100918.97;;;20.38;40.10
60212;BME280;46079;48.686;15.598;2023-02-28T05:11:27;100913.56;;;20.39;40.09
60212;BME280;46079;48.686;15.598;2023-02-28T05:13:54;100918.84;;;20.39;40.14
60212;BME280;46079;48.686;15.598;2023-02-28T05:16:20;100914.41;;;20.40;40.02
60212;BME280;46079;48.686;15.598;2023-02-28T05:18:46;100926.63;;;20.41;40.02
60212;BME280;46079;48.686;15.598;2023-02-28T05:21:30;100920.53;;;20.40;40.24
60212;BME280;46079;48.686;15.598;2023-02-28T05:23:59;100916.09;;;20.41;40.09
60212;BME280;46079;48.686;15.598;2023-02-28T05:26:25;100917.75;;;20.42;39.96
60212;BME280;46079;48.686;15.598;2023-02-28T05:28:51;100927.31;;;20.43;40.09
60212;BME280;46079;48.686;15.598;2023-02-28T05:31:17;100929.13;;;20.42;40.14
60212;BME280;46079;48.686;15.598;2023-02-28T05:33:42;100928.19;;;20.43;40.21
60212;BME280;46079;48.686;15.598;2023-02-28T05:36:08;100930.81;;;20.43;40.27
60212;BME280;46079;48.686;15.598;2023-02-28T05:38:34;100929.94;;;20.43;40.38
60212;BME280;46079;48.686;15.598;2023-02-28T05:40:59;100927.22;;;20.44;40.25
60212;BME280;46079;48.686;15.598;2023-02-28T05:43:25;100932.47;;;20.44;40.05
60212;BME280;46079;48.686;15.598;2023-02-28T05:45:50;100932.47;;;20.44;39.30
60212;BME280;46079;48.686;15.598;2023-02-28T05:48:16;100944.66;;;20.46;39.09
60212;BME280;46079;48.686;15.598;2023-02-28T05:50:43;100940.34;;;20.44;38.78
60212;BME280;46079;48.686;15.598;2023-02-28T05:53:11;100949.91;;;20.46;38.57
60212;BME280;46079;48.686;15.598;2023-02-28T05:55:37;100946.22;;;20.48;38.32
60212;BME280;46079;48.686;15.598;2023-02-28T05:58:03;100956.63;;;20.50;38.34
60212;BME280;46079;48.686;15.598;2023-02-28T06:00:29;100960.22;;;20.49;38.21
60212;BME280;46079;48.686;15.598;2023-02-28T06:02:54;100949.72;;;20.49;38.25
60212;BME280;46079;48.686;15.598;2023-02-28T06:05:23;100952.34;;;20.49;38.60
60212;BME280;46079;48.686;15.598;2023-02-28T06:07:49;100959.13;;;20.51;38.41
60212;BME280;46079;48.686;15.598;2023-02-28T06:10:15;100956.50;;;20.51;38.11
60212;BME280;46079;48.686;15.598;2023-02-28T06:12:41;100955.66;;;20.51;38.15
60212;BME280;46079;48.686;15.598;2023-02-28T06:15:12;100955.56;;;20.52;38.01
60212;BME280;46079;48.686;15.598;2023-02-28T06:17:41;100957.47;;;20.50;38.05
60212;BME280;46079;48.686;15.598;2023-02-28T06:20:08;100961.75;;;20.51;38.51
60212;BME280;46079;48.686;15.598;2023-02-28T06:22:36;100958.28;;;20.51;38.66
60212;BME280;46079;48.686;15.598;2023-02-28T06:25:03;100958.09;;;20.54;39.11
60212;BME280;46079;48.686;15.598;2023-02-28T06:27:30;100965.16;;;20.53;39.28
60212;BME280;46079;48.686;15.598;2023-02-28T06:29:56;100962.53;;;20.53;39.38
60212;BME280;46079;48.686;15.598;2023-02-28T06:32:22;100965.16;;;20.53;39.18
60212;BME280;46079;48.686;15.598;2023-02-28T06:34:47;100968.59;;;20.54;39.22
60212;BME280;46079;48.686;15.598;2023-02-28T06:37:13;100968.59;;;20.54;39.26
60212;BME280;46079;48.686;15.598;2023-02-28T06:39:38;100977.34;;;20.54;39.18
60212;BME280;46079;48.686;15.598;2023-02-28T06:42:05;100975.56;;;20.55;39.04
60212;BME280;46079;48.686;15.598;2023-02-28T06:44:30;100973.03;;;20.53;38.98
60212;BME280;46079;48.686;15.598;2023-02-28T06:47:04;100984.38;;;20.54;38.93
60212;BME280;46079;48.686;15.598;2023-02-28T06:49:32;100979.13;;;20.54;39.08
60212;BME280;46079;48.686;15.598;2023-02-28T06:51:57;100984.38;;;20.54;39.01
60212;BME280;46079;48.686;15.598;2023-02-28T06:54:23;100986.19;;;20.53;38.93
60212;BME280;46079;48.686;15.598;2023-02-28T06:56:49;100983.53;;;20.53;38.86
60212;BME280;46079;48.686;15.598;2023-02-28T06:59:17;100987.00;;;20.54;38.91
60212;BME280;46079;48.686;15.598;2023-02-28T07:01:43;100989.63;;;20.54;38.93
60212;BME280;46079;48.686;15.598;2023-02-28T07:04:09;100982.63;;;20.54;38.70
60212;BME280;46079;48.686;15.598;2023-02-28T07:06:34;100983.44;;;20.55;38.92
60212;BME280;46079;48.686;15.598;2023-02-28T07:08:59;100987.88;;;20.54;38.92
60212;BME280;46079;48.686;15.598;2023-02-28T07:11:26;100981.66;;;20.55;38.91
60212;BME280;46079;48.686;15.598;2023-02-28T07:13:54;100988.56;;;20.56;38.82
60212;BME280;46079;48.686;15.598;2023-02-28T07:16:20;100984.88;;;20.59;38.58
60212;BME280;46079;48.686;15.598;2023-02-28T07:18:47;100983.81;;;20.61;38.54
60212;BME280;46079;48.686;15.598;2023-02-28T07:21:12;100989.81;;;20.63;38.49
60212;BME280;46079;48.686;15.598;2023-02-28T07:23:38;100988.00;;;20.64;38.33
60212;BME280;46079;48.686;15.598;2023-02-28T07:26:11;100981.78;;;20.65;38.40
60212;BME280;46079;48.686;15.598;2023-02-28T07:28:40;100988.75;;;20.66;38.37
60212;BME280;46079;48.686;15.598;2023-02-28T07:31:08;100989.59;;;20.67;38.35
60212;BME280;46079;48.686;15.598;2023-02-28T07:33:34;100998.31;;;20.67;38.46
60212;BME280;46079;48.686;15.598;2023-02-28T07:36:08;101000.94;;;20.67;38.07
60212;BME280;46079;48.686;15.598;2023-02-28T07:38:37;100994.84;;;20.67;38.33
60212;BME280;46079;48.686;15.598;2023-02-28T07:41:03;101003.56;;;20.67;38.41
60212;BME280;46079;48.686;15.598;2023-02-28T07:43:33;101006.19;;;20.67;38.19
60212;BME280;46079;48.686;15.598;2023-02-28T07:46:07;101009.66;;;20.68;38.18
60212;BME280;46079;48.686;15.598;2023-02-28T07:48:33;101008.81;;;20.67;38.18
60212;BME280;46079;48.686;15.598;2023-02-28T07:50:59;101018.41;;;20.68;38.39
60212;BME280;46079;48.686;15.598;2023-02-28T07:53:26;101013.13;;;20.68;38.23
60212;BME280;46079;48.686;15.598;2023-02-28T07:55:55;101020.91;;;20.70;38.06
60212;BME280;46079;48.686;15.598;2023-02-28T07:58:21;101016.47;;;20.70;38.11
60212;BME280;46079;48.686;15.598;2023-02-28T08:00:46;101024.25;;;20.72;38.11
60212;BME280;46079;48.686;15.598;2023-02-28T08:03:12;101018.16;;;20.71;38.29
60212;BME280;46079;48.686;15.598;2023-02-28T08:05:41;101014.56;;;20.72;38.14
60212;BME280;46079;48.686;15.598;2023-02-28T08:08:07;101022.38;;;20.74;38.17
60212;BME280;46079;48.686;15.598;2023-02-28T08:10:33;101022.38;;;20.74;38.06
60212;BME280;46079;48.686;15.598;2023-02-28T08:12:58;101013.50;;;20.75;38.07
60212;BME280;46079;48.686;15.598;2023-02-28T08:15:27;101017.09;;;20.74;37.97
60212;BME280;46079;48.686;15.598;2023-02-28T08:17:52;101017.09;;;20.74;37.95
60212;BME280;46079;48.686;15.598;2023-02-28T08:20:18;101019.75;;;20.74;38.01
60212;BME280;46079;48.686;15.598;2023-02-28T08:22:43;101018.66;;;20.76;38.06
60212;BME280;46079;48.686;15.598;2023-02-28T08:25:09;101014.34;;;20.75;38.00
60212;BME280;46079;48.686;15.598;2023-02-28T08:27:36;101016.88;;;20.77;38.04
60212;BME280;46079;48.686;15.598;2023-02-28T08:30:02;101017.72;;;20.77;38.04
60212;BME280;46079;48.686;15.598;2023-02-28T08:32:28;101016.03;;;20.76;37.99
60212;BME280;46079;48.686;15.598;2023-02-28T08:34:53;101015.81;;;20.79;37.87
60212;BME280;46079;48.686;15.598;2023-02-28T08:37:19;101015.69;;;20.81;37.93
60212;BME280;46079;48.686;15.598;2023-02-28T08:39:45;101020.84;;;20.82;37.85
60212;BME280;46079;48.686;15.598;2023-02-28T08:42:10;101016.31;;;20.84;37.83
60212;BME280;46079;48.686;15.598;2023-02-28T08:44:36;101014.38;;;20.86;37.68
60212;BME280;46079;48.686;15.598;2023-02-28T08:47:02;101017.75;;;20.88;37.73
60212;BME280;46079;48.686;15.598;2023-02-28T08:49:27;101016.78;;;20.90;37.65
60212;BME280;46079;48.686;15.598;2023-02-28T08:51:53;101023.75;;;20.91;37.61
60212;BME280;46079;48.686;15.598;2023-02-28T08:54:20;101029.00;;;20.91;37.74
60212;BME280;46079;48.686;15.598;2023-02-28T08:56:46;101027.09;;;20.93;37.74
60212;BME280;46079;48.686;15.598;2023-02-28T08:59:15;101027.09;;;20.93;37.61
60212;BME280;46079;48.686;15.598;2023-02-28T09:01:40;101033.28;;;20.92;37.71
60212;BME280;46079;48.686;15.598;2023-02-28T09:04:07;101031.63;;;20.91;37.66
60212;BME280;46079;48.686;15.598;2023-02-28T09:06:34;101036.16;;;20.88;37.69
60212;BME280;46079;48.686;15.598;2023-02-28T09:08:59;101038.78;;;20.88;37.68
60212;BME280;46079;48.686;15.598;2023-02-28T09:11:26;101034.50;;;20.87;37.73
60212;BME280;46079;48.686;15.598;2023-02-28T09:13:52;101028.41;;;20.87;37.75
60212;BME280;46079;48.686;15.598;2023-02-28T09:16:18;101036.38;;;20.85;37.60
60212;BME280;46079;48.686;15.598;2023-02-28T09:18:44;101036.38;;;20.85;37.69
60212;BME280;46079;48.686;15.598;2023-02-28T09:21:12;101049.53;;;20.85;37.55
60212;BME280;46079;48.686;15.598;2023-02-28T09:23:43;101045.25;;;20.84;37.71
60212;BME280;46079;48.686;15.598;2023-02-28T09:26:21;101041.88;;;20.82;37.67
60212;BME280;46079;48.686;15.598;2023-02-28T09:28:48;101041.88;;;20.82;37.69
60212;BME280;46079;48.686;15.598;2023-02-28T09:31:15;101041.88;;;20.82;37.72
60212;BME280;46079;48.686;15.598;2023-02-28T09:33:42;101034.91;;;20.81;37.67
60212;BME280;46079;48.686;15.598;2023-02-28T09:36:08;101047.13;;;20.82;37.64
60212;BME280;46079;48.686;15.598;2023-02-28T09:38:35;101040.19;;;20.81;37.62
60212;BME280;46079;48.686;15.598;2023-02-28T09:41:03;101037.56;;;20.81;37.69
60212;BME280;46079;48.686;15.598;2023-02-28T09:43:35;101042.81;;;20.81;37.74
60212;BME280;46079;48.686;15.598;2023-02-28T09:48:46;101044.75;;;20.79;37.08
60212;BME280;46079;48.686;15.598;2023-02-28T09:51:33;101048.31;;;20.78;37.23
60212;BME280;46079;48.686;15.598;2023-02-28T09:54:01;101047.38;;;20.79;37.25
60212;BME280;46079;48.686;15.598;2023-02-28T09:56:39;101053.56;;;20.78;37.34
60212;BME280;46079;48.686;15.598;2023-02-28T10:01:43;101058.13;;;20.76;37.35
60212;BME280;46079;48.686;15.598;2023-02-28T10:06:58;101049.34;;;20.76;37.65
60212;BME280;46079;48.686;15.598;2023-02-28T10:09:29;101044.97;;;20.76;37.74
60212;BME280;46079;48.686;15.598;2023-02-28T10:12:02;101047.59;;;20.76;37.33
60212;BME280;46079;48.686;15.598;2023-02-28T10:14:29;101053.69;;;20.77;37.72
60212;BME280;46079;48.686;15.598;2023-02-28T10:17:05;101050.22;;;20.76;37.80
60212;BME280;46079;48.686;15.598;2023-02-28T10:22:20;101042.44;;;20.75;37.86
60212;BME280;46079;48.686;15.598;2023-02-28T10:24:53;101044.09;;;20.76;37.74
60212;BME280;46079;48.686;15.598;2023-02-28T10:27:29;101034.44;;;20.76;37.69
60212;BME280;46079;48.686;15.598;2023-02-28T10:29:57;101030.13;;;20.75;37.82
60212;BME280;46079;48.686;15.598;2023-02-28T10:32:29;101034.44;;;20.76;37.72
60212;BME280;46079;48.686;15.598;2023-02-28T10:37:25;101030.13;;;20.75;38.02
60212;BME280;46079;48.686;15.598;2023-02-28T10:39:50;101024.88;;;20.75;37.92
60212;BME280;46079;48.686;15.598;2023-02-28T10:42:28;101017.94;;;20.74;37.73
60212;BME280;46079;48.686;15.598;2023-02-28T10:45:16;101015.31;;;20.74;37.79
60212;BME280;46079;48.686;15.598;2023-02-28T10:47:57;101008.34;;;20.73;37.83
60212;BME280;46079;48.686;15.598;2023-02-28T10:52:52;101014.56;;;20.72;37.89
60212;BME280;46079;48.686;15.598;2023-02-28T10:55:24;101009.31;;;20.72;37.89
60212;BME280;46079;48.686;15.598;2023-02-28T10:57:51;101007.66;;;20.71;37.63
60212;BME280;46079;48.686;15.598;2023-02-28T11:00:22;100998.81;;;20.72;37.80
60212;BME280;46079;48.686;15.598;2023-02-28T11:02:48;101005.03;;;20.71;37.72
60212;BME280;46079;48.686;15.598;2023-02-28T11:05:31;101000.59;;;20.72;37.75
60212;BME280;46079;48.686;15.598;2023-02-28T11:08:15;100997.13;;;20.71;37.76
60212;BME280;46079;48.686;15.598;2023-02-28T11:10:54;100993.53;;;20.72;37.63
60212;BME280;46079;48.686;15.598;2023-02-28T11:13:32;100991.88;;;20.71;37.94
60212;BME280;46079;48.686;15.598;2023-02-28T11:16:00;100981.34;;;20.71;37.82
60212;BME280;46079;48.686;15.598;2023-02-28T11:18:51;100984.00;;;20.71;37.56
60212;BME280;46079;48.686;15.598;2023-02-28T11:24:02;100973.56;;;20.70;37.62
60212;BME280;46079;48.686;15.598;2023-02-28T11:26:44;100978.84;;;20.70;37.64
60212;BME280;46079;48.686;15.598;2023-02-28T11:34:34;100978.84;;;20.70;37.81
60212;BME280;46079;48.686;15.598;2023-02-28T11:37:01;100974.53;;;20.69;37.71
60212;BME280;46079;48.686;15.598;2023-02-28T11:39:31;100964.13;;;20.67;37.71
60212;BME280;46079;48.686;15.598;2023-02-28T11:45:04;100961.50;;;20.67;37.65
60212;BME280;46079;48.686;15.598;2023-02-28T11:50:23;100956.38;;;20.65;37.57
60212;BME280;46079;48.686;15.598;2023-02-28T11:52:55;100950.25;;;20.65;37.71
60212;BME280;46079;48.686;15.598;2023-02-28T11:55:25;100956.47;;;20.64;37.53
60212;BME280;46079;48.686;15.598;2023-02-28T12:03:36;100946.19;;;20.61;37.72
60212;BME280;46079;48.686;15.598;2023-02-28T12:11:29;100928.75;;;20.60;37.69
60212;BME280;46079;48.686;15.598;2023-02-28T12:14:32;100935.78;;;20.59;37.56
60212;BME280;46079;48.686;15.598;2023-02-28T12:22:32;100929.69;;;20.59;37.69
60212;BME280;46079;48.686;15.598;2023-02-28T12:27:41;100928.13;;;20.56;37.65
60212;BME280;46079;48.686;15.598;2023-02-28T12:30:22;100923.72;;;20.57;37.69
60212;BME280;46079;48.686;15.598;2023-02-28T12:33:11;100913.31;;;20.55;37.65
60212;BME280;46079;48.686;15.598;2023-02-28T12:35:48;100903.63;;;20.56;37.77
60212;BME280;46079;48.686;15.598;2023-02-28T12:38:19;100918.56;;;20.55;37.88
60212;BME280;46079;48.686;15.598;2023-02-28T12:43:16;100910.78;;;20.54;37.90
60212;BME280;46079;48.686;15.598;2023-02-28T12:45:50;100902.91;;;20.54;37.93
60212;BME280;46079;48.686;15.598;2023-02-28T12:48:23;100901.19;;;20.53;37.80
60212;BME280;46079;48.686;15.598;2023-02-28T12:50:50;100899.44;;;20.53;38.11
60212;BME280;46079;48.686;15.598;2023-02-28T12:53:26;100896.81;;;20.53;37.85
60212;BME280;46079;48.686;15.598;2023-02-28T12:58:48;100894.28;;;20.52;37.78
60212;BME280;46079;48.686;15.598;2023-02-28T13:04:26;100893.41;;;20.51;37.85
60212;BME280;46079;48.686;15.598;2023-02-28T13:10:00;100890.78;;;20.51;37.83
60212;BME280;46079;48.686;15.598;2023-02-28T13:12:28;100885.66;;;20.50;37.88
60212;BME280;46079;48.686;15.598;2023-02-28T13:15:18;100891.88;;;20.49;37.88
60212;BME280;46079;48.686;15.598;2023-02-28T13:17:55;100891.88;;;20.49;38.01
60212;BME280;46079;48.686;15.598;2023-02-28T13:20:26;100889.25;;;20.49;37.99
60212;BME280;46079;48.686;15.598;2023-02-28T13:22:54;100879.69;;;20.48;37.97
60212;BME280;46079;48.686;15.598;2023-02-28T13:28:12;100881.38;;;20.49;38.05
60212;BME280;46079;48.686;15.598;2023-02-28T13:33:26;100883.28;;;20.47;38.13
60212;BME280;46079;48.686;15.598;2023-02-28T13:38:35;100878.75;;;20.49;38.15
60212;BME280;46079;48.686;15.598;2023-02-28T13:44:22;100882.19;;;20.49;38.32
60212;BME280;46079;48.686;15.598;2023-02-28T13:49:25;100876.13;;;20.49;38.23
60212;BME280;46079;48.686;15.598;2023-02-28T14:06:24;100881.56;;;20.46;38.49
60212;BME280;46079;48.686;15.598;2023-02-28T14:09:06;100884.19;;;20.46;38.33
60212;BME280;46079;48.686;15.598;2023-02-28T14:11:43;100881.56;;;20.46;38.47
60212;BME280;46079;48.686;15.598;2023-02-28T14:17:02;100878.13;;;20.45;38.28
60212;BME280;46079;48.686;15.598;2023-02-28T14:19:31;100884.19;;;20.46;38.43
60212;BME280;46079;48.686;15.598;2023-02-28T14:36:01;100864.25;;;20.43;38.36
60212;BME280;46079;48.686;15.598;2023-02-28T14:38:43;100859.13;;;20.41;38.31
60212;BME280;46079;48.686;15.598;2023-02-28T14:43:56;100858.28;;;20.41;38.45
60212;BME280;46079;48.686;15.598;2023-02-28T14:46:25;100853.88;;;20.41;38.46
60212;BME280;46079;48.686;15.598;2023-02-28T14:48:51;100852.19;;;20.40;38.48
60212;BME280;46079;48.686;15.598;2023-02-28T14:51:22;100860.09;;;20.40;38.38
60212;BME280;46079;48.686;15.598;2023-02-28T14:54:06;100863.53;;;20.41;38.45
60212;BME280;46079;48.686;15.598;2023-02-28T14:56:37;100858.38;;;20.39;38.34
60212;BME280;46079;48.686;15.598;2023-02-28T14:59:04;100861.84;;;20.40;38.54
60212;BME280;46079;48.686;15.598;2023-02-28T15:01:30;100861.03;;;20.39;38.33